Time;durP1;ratioP1;P1;durP2;ratioP2;P2;SDS_P1;SDS_P2;PMS_P1;PMS_P2;Temp;Humidity;BMP_temperature;BMP_pressure;BME280_temperature;BME280_humidity;BME280_pressure;Samples;Min_cycle;Max_cycle;Signal;HPM_P1;HPM_P2
2022/06/14 00:03:39;;;;;;;1.48;0.40;;;14.20;91.70;;;;;;10360620;28;20042;-90
2022/06/14 00:08:41;;;;;;;2.10;0.43;;;14.00;91.70;;;;;;10334827;28;21396;-90
2022/06/14 00:13:44;;;;;;;0.98;0.30;;;14.00;92.00;;;;;;10376123;28;20045;-90
2022/06/14 00:18:47;;;;;;;3.35;0.32;;;13.90;92.40;;;;;;10349184;28;20040;-90
2022/06/14 00:23:49;;;;;;;3.70;0.45;;;13.70;92.70;;;;;;10352914;28;20041;-90
2022/06/14 00:28:51;;;;;;;2.10;0.30;;;13.70;92.80;;;;;;10360477;28;20084;-90
2022/06/14 00:33:53;;;;;;;3.00;0.40;;;13.60;93.10;;;;;;10350512;28;20476;-90
2022/06/14 00:38:57;;;;;;;0.50;0.30;;;13.60;93.80;;;;;;10349483;28;20045;-90
2022/06/14 00:43:59;;;;;;;2.00;0.40;;;13.60;94.40;;;;;;10345632;28;20157;-89
2022/06/14 00:49:10;;;;;;;0.38;0.20;;;13.50;94.70;;;;;;10366729;28;20400;-89
2022/06/14 00:54:26;;;;;;;1.40;0.38;;;13.50;94.60;;;;;;10347706;28;20113;-90
2022/06/14 00:59:47;;;;;;;0.88;0.40;;;13.40;95.20;;;;;;10356254;28;20050;-90
2022/06/14 01:04:49;;;;;;;1.00;0.35;;;13.10;95.70;;;;;;10361428;28;20045;-90
2022/06/14 01:10:14;;;;;;;1.60;0.40;;;13.10;96.10;;;;;;10375018;28;20057;-90
2022/06/14 01:15:22;;;;;;;0.55;0.30;;;13.10;96.70;;;;;;10351389;28;20065;-90
2022/06/14 01:20:24;;;;;;;0.47;0.35;;;13.10;97.80;;;;;;10358966;28;20100;-90
2022/06/14 01:25:30;;;;;;;0.93;0.40;;;12.90;98.60;;;;;;10360813;28;20082;-90
2022/06/14 01:30:38;;;;;;;1.48;0.40;;;12.80;99.10;;;;;;10361797;28;20602;-90
2022/06/14 01:35:44;;;;;;;3.70;0.50;;;12.80;99.40;;;;;;10349967;28;20109;-90
2022/06/14 01:41:07;;;;;;;4.72;0.50;;;12.70;99.90;;;;;;10332949;28;20097;-90
2022/06/14 01:46:25;;;;;;;1.10;0.40;;;12.50;99.90;;;;;;10352662;28;20085;-90
2022/06/14 01:51:54;;;;;;;1.10;0.40;;;12.40;99.90;;;;;;10352601;28;20046;-89
2022/06/14 01:57:04;;;;;;;4.13;0.60;;;12.40;99.90;;;;;;10354312;28;20121;-90
2022/06/14 02:02:34;;;;;;;4.38;0.55;;;12.30;99.90;;;;;;10357856;28;20068;-90
2022/06/14 02:07:51;;;;;;;4.85;1.20;;;12.10;99.90;;;;;;10354494;28;20378;-89
2022/06/14 02:13:07;;;;;;;;;;;12.00;99.90;;;;;;10371519;28;20042;-89
2022/06/14 02:18:26;;;;;;;0.80;0.40;;;12.00;99.90;;;;;;10349640;28;19980;-90
2022/06/14 02:23:33;;;;;;;3.90;0.50;;;12.00;99.90;;;;;;10349752;28;20494;-89
2022/06/14 02:28:43;;;;;;;1.33;0.40;;;11.90;99.90;;;;;;10351410;28;20536;-89
2022/06/14 02:33:51;;;;;;;0.80;0.50;;;11.80;99.90;;;;;;10341501;28;20050;-88
2022/06/14 02:38:59;;;;;;;2.88;0.70;;;11.80;99.90;;;;;;10351138;28;20038;-88
2022/06/14 02:44:23;;;;;;;4.38;1.17;;;11.70;99.90;;;;;;10354432;28;20089;-89
2022/06/14 02:49:32;;;;;;;4.75;0.50;;;11.60;99.90;;;;;;10346294;28;20504;-89
2022/06/14 02:54:40;;;;;;;0.90;0.60;;;11.50;99.90;;;;;;10359020;28;20046;-88
2022/06/14 02:59:47;;;;;;;2.22;0.63;;;11.50;99.90;;;;;;10361467;28;20049;-88
2022/06/14 03:05:06;;;;;;;1.23;0.47;;;11.30;99.90;;;;;;10355382;28;20125;-88
2022/06/14 03:10:08;;;;;;;0.60;0.50;;;11.30;99.90;;;;;;10352630;28;20578;-88
2022/06/14 03:15:32;;;;;;;0.63;0.52;;;11.10;99.90;;;;;;10379068;28;20108;-86
2022/06/14 03:20:41;;;;;;;2.10;0.85;;;11.20;99.90;;;;;;10338316;28;20517;-86
2022/06/14 03:26:05;;;;;;;2.42;0.80;;;11.20;99.90;;;;;;10361289;28;20069;-86
2022/06/14 03:31:20;;;;;;;3.60;0.55;;;11.10;99.90;;;;;;10348647;28;20050;-87
2022/06/14 03:36:22;;;;;;;0.80;0.40;;;11.10;99.90;;;;;;10357879;28;20096;-87
2022/06/14 03:41:27;;;;;;;0.60;0.45;;;11.20;99.90;;;;;;10340465;28;20056;-86
2022/06/14 03:46:37;;;;;;;1.45;0.65;;;11.20;99.90;;;;;;10342628;28;20043;-86
2022/06/14 03:52:01;;;;;;;2.53;0.77;;;11.10;99.90;;;;;;10374380;28;20050;-86
2022/06/14 03:57:32;;;;;;;1.88;0.50;;;11.10;99.90;;;;;;10357113;28;20060;-88
2022/06/14 04:03:01;;;;;;;2.30;0.68;;;11.10;99.90;;;;;;10352377;28;20054;-86
2022/06/14 04:08:15;;;;;;;0.88;0.50;;;11.20;99.90;;;;;;10354631;28;20041;-86
2022/06/14 04:13:52;;;;;;;1.67;0.60;;;11.20;99.90;;;;;;10351863;28;20438;-87
2022/06/14 04:19:12;;;;;;;1.33;0.60;;;11.30;99.90;;;;;;10332775;28;20102;-86
2022/06/14 04:24:26;;;;;;;1.70;0.50;;;11.30;99.90;;;;;;10352000;28;20093;-86
2022/06/14 04:30:00;;;;;;;2.88;0.50;;;11.40;99.90;;;;;;10344176;28;20034;-86
2022/06/14 04:35:24;;;;;;;1.17;0.68;;;11.50;99.90;;;;;;10367852;28;20068;-88
2022/06/14 04:40:33;;;;;;;3.88;1.55;;;11.50;99.90;;;;;;10370729;28;20089;-88
2022/06/14 04:45:41;;;;;;;3.90;1.00;;;11.50;99.90;;;;;;10352496;28;20065;-87
2022/06/14 04:50:52;;;;;;;3.85;1.40;;;11.60;99.90;;;;;;10352461;28;20057;-87
2022/06/14 04:56:04;;;;;;;1.17;0.90;;;11.60;99.90;;;;;;10347514;28;20046;-87
2022/06/14 05:01:20;;;;;;;3.25;0.60;;;11.70;99.90;;;;;;10351297;28;20120;-88
2022/06/14 05:06:35;;;;;;;3.17;0.55;;;11.80;99.90;;;;;;10322047;28;20473;-89
2022/06/14 05:11:40;;;;;;;6.15;0.70;;;11.80;99.90;;;;;;10356784;28;20078;-89
2022/06/14 05:16:48;;;;;;;0.85;0.55;;;11.90;99.90;;;;;;10325200;28;20060;-89
2022/06/14 05:22:08;;;;;;;4.30;0.60;;;12.00;99.90;;;;;;10344296;28;20046;-87
2022/06/14 05:27:32;;;;;;;1.23;0.60;;;12.20;99.90;;;;;;10349618;28;20097;-87
2022/06/14 05:32:53;;;;;;;2.40;0.70;;;12.30;99.90;;;;;;10327260;28;20553;-84
2022/06/14 05:38:32;;;;;;;3.17;0.82;;;12.40;99.90;;;;;;10350186;28;20045;-84
2022/06/14 05:43:46;;;;;;;5.57;0.80;;;12.50;99.90;;;;;;10347885;28;20042;-84
2022/06/14 05:48:56;;;;;;;2.67;0.73;;;12.70;99.90;;;;;;10347814;28;20046;-84
2022/06/14 05:54:09;;;;;;;0.50;0.50;;;12.80;99.90;;;;;;10342480;28;20060;-85
2022/06/14 05:59:35;;;;;;;2.95;0.50;;;12.90;99.90;;;;;;10346523;28;20157;-84
2022/06/14 06:04:47;;;;;;;2.03;1.20;;;13.10;99.90;;;;;;10344907;28;20057;-84
2022/06/14 06:10:20;;;;;;;0.67;0.43;;;13.30;99.90;;;;;;10342873;28;20072;-84
2022/06/14 06:15:30;;;;;;;2.80;0.63;;;13.50;99.90;;;;;;10338826;28;20050;-84
2022/06/14 06:20:37;;;;;;;2.13;0.50;;;13.80;99.90;;;;;;10345295;28;20045;-84
2022/06/14 06:25:41;;;;;;;;;;;14.00;99.90;;;;;;10351955;28;20404;-84
2022/06/14 06:31:04;;;;;;;2.97;0.50;;;14.20;99.90;;;;;;10335425;28;19929;-84
2022/06/14 06:36:57;;;;;;;4.18;0.50;;;14.40;99.90;;;;;;10366929;28;20054;-84
2022/06/14 06:42:21;;;;;;;2.92;0.40;;;14.60;99.90;;;;;;10284749;28;20041;-84
2022/06/14 06:47:35;;;;;;;2.30;0.43;;;14.80;99.90;;;;;;10361437;28;20069;-84
2022/06/14 06:52:58;;;;;;;1.60;0.30;;;15.10;99.90;;;;;;10333778;28;20133;-84
2022/06/14 06:58:04;;;;;;;1.60;0.40;;;15.30;99.90;;;;;;10346657;28;20046;-84
2022/06/14 07:03:51;;;;;;;1.00;0.40;;;15.50;99.90;;;;;;10351096;28;20529;-84
2022/06/14 07:09:06;;;;;;;1.67;0.30;;;15.80;99.90;;;;;;10289014;28;20049;-84
2022/06/14 07:14:25;;;;;;;0.57;0.30;;;16.00;99.90;;;;;;10341356;28;20463;-84
2022/06/14 07:19:41;;;;;;;3.28;0.45;;;16.20;99.90;;;;;;10340790;28;20058;-84
2022/06/14 07:24:55;;;;;;;1.63;0.30;;;16.50;99.90;;;;;;10351153;28;20418;-84
2022/06/14 07:30:25;;;;;;;1.42;0.30;;;16.70;99.90;;;;;;10352294;28;20564;-84
2022/06/14 07:35:39;;;;;;;0.47;0.20;;;16.90;99.00;;;;;;10342826;28;20092;-84
2022/06/14 07:40:46;;;;;;;3.28;0.40;;;16.80;96.90;;;;;;10360998;28;20133;-85
2022/06/14 07:45:49;;;;;;;2.80;0.30;;;17.20;97.90;;;;;;10350971;28;20050;-85
2022/06/14 07:51:04;;;;;;;2.75;0.20;;;17.30;97.00;;;;;;10336608;28;20046;-85
2022/06/14 07:56:20;;;;;;;3.00;0.30;;;17.60;93.90;;;;;;10363657;28;20452;-85
2022/06/14 08:01:37;;;;;;;6.63;0.40;;;17.60;92.90;;;;;;10348282;28;20412;-85
2022/06/14 08:06:52;;;;;;;0.88;0.32;;;17.80;93.40;;;;;;10346703;28;20046;-85
2022/06/14 08:11:59;;;;;;;0.57;0.20;;;18.10;93.10;;;;;;10347223;28;20056;-85
2022/06/14 08:17:03;;;;;;;3.05;0.20;;;18.20;91.80;;;;;;10360614;28;20463;-85
2022/06/14 08:22:09;;;;;;;1.60;0.17;;;18.50;92.50;;;;;;10341801;28;20042;-85
2022/06/14 08:27:18;;;;;;;3.90;0.22;;;18.60;90.20;;;;;;10328849;28;20065;-86
2022/06/14 08:32:39;;;;;;;1.00;0.20;;;18.70;90.20;;;;;;10347542;28;20049;-85
2022/06/14 08:37:54;;;;;;;4.32;0.40;;;18.90;90.00;;;;;;10345300;28;20429;-85
2022/06/14 08:43:01;;;;;;;5.38;0.75;;;19.10;87.40;;;;;;10323902;28;20042;-86
2022/06/14 08:48:19;;;;;;;1.67;0.40;;;19.40;88.30;;;;;;10341181;28;20073;-85
2022/06/14 08:53:46;;;;;;;1.80;0.28;;;19.50;89.50;;;;;;10340506;28;20955;-85
2022/06/14 08:59:05;;;;;;;0.82;0.20;;;19.70;83.90;;;;;;10331310;28;20408;-85
2022/06/14 09:04:44;;;;;;;1.02;0.28;;;19.90;84.50;;;;;;10356223;28;20053;-85
2022/06/14 09:10:19;;;;;;;5.22;0.35;;;20.10;82.90;;;;;;10339426;28;20053;-85
2022/06/14 09:15:38;;;;;;;0.80;0.20;;;20.40;80.50;;;;;;10337078;28;20042;-84
2022/06/14 09:20:57;;;;;;;4.50;0.28;;;20.30;70.50;;;;;;10345138;28;20102;-84
2022/06/14 09:26:44;;;;;;;3.92;0.30;;;20.10;71.30;;;;;;10340603;28;20392;-84
2022/06/14 09:32:10;;;;;;;1.90;0.20;;;20.30;69.90;;;;;;10360772;28;20065;-84
2022/06/14 09:37:36;;;;;;;3.20;0.40;;;20.30;68.80;;;;;;10338133;28;20113;-85
2022/06/14 09:43:15;;;;;;;5.90;0.30;;;20.60;70.90;;;;;;10340589;28;20400;-85
2022/06/14 09:48:58;;;;;;;7.72;0.43;;;20.80;67.40;;;;;;10342598;28;20136;-85
2022/06/14 09:54:21;;;;;;;2.63;0.38;;;21.00;68.40;;;;;;10338687;28;20125;-85
2022/06/14 09:59:48;;;;;;;3.47;0.30;;;21.00;66.60;;;;;;10339303;28;20724;-85
2022/06/14 10:04:50;;;;;;;5.07;1.67;;;21.30;68.40;;;;;;10352881;28;20669;-85
2022/06/14 10:10:02;;;;;;;3.28;0.38;;;21.70;68.20;;;;;;10351432;28;20149;-85
2022/06/14 10:15:40;;;;;;;1.65;0.20;;;22.00;65.30;;;;;;10352055;28;20397;-85
2022/06/14 10:21:18;;;;;;;3.50;0.20;;;22.30;65.20;;;;;;10322551;28;20269;-85
2022/06/14 10:32:17;;;;;;;3.17;0.30;;;22.30;63.20;;;;;;10342104;28;20060;-85
2022/06/14 10:37:49;;;;;;;2.42;0.20;;;22.70;64.50;;;;;;10350196;28;20045;-85
2022/06/14 10:43:00;;;;;;;3.00;0.30;;;22.70;62.10;;;;;;10349321;28;20050;-85
2022/06/14 10:48:40;;;;;;;1.55;0.20;;;23.10;60.50;;;;;;10348805;28;20061;-85
2022/06/14 10:53:51;;;;;;;2.33;0.30;;;22.80;59.10;;;;;;10345799;28;20050;-85
2022/06/14 10:59:03;;;;;;;1.88;0.20;;;23.00;57.40;;;;;;10327263;28;20414;-85
2022/06/14 11:04:12;;;;;;;1.20;0.30;;;23.10;57.60;;;;;;10365525;28;20050;-85
2022/06/14 11:09:28;;;;;;;0.95;0.20;;;23.20;56.40;;;;;;10334999;28;20042;-85
2022/06/14 11:14:43;;;;;;;1.08;0.20;;;23.90;56.30;;;;;;10344254;28;20042;-85
2022/06/14 11:19:56;;;;;;;2.47;0.32;;;23.80;54.90;;;;;;10331591;28;20044;-85
2022/06/14 11:25:16;;;;;;;3.20;0.20;;;24.20;55.70;;;;;;10346786;28;20058;-85
2022/06/14 11:30:42;;;;;;;2.47;0.20;;;24.80;51.10;;;;;;10346521;28;20124;-85
2022/06/14 11:35:58;;;;;;;4.38;0.20;;;25.40;51.80;;;;;;10342748;28;20065;-85
2022/06/14 11:41:05;;;;;;;4.50;0.63;;;25.40;52.50;;;;;;10327469;28;20061;-86
2022/06/14 11:46:42;;;;;;;3.70;0.52;;;25.90;51.40;;;;;;10334977;28;20444;-85
2022/06/14 11:51:53;;;;;;;4.03;0.20;;;25.90;49.10;;;;;;10321948;28;20420;-85
2022/06/14 11:57:10;;;;;;;3.42;0.40;;;26.10;49.90;;;;;;10346401;28;20660;-84
2022/06/14 12:02:20;;;;;;;0.80;0.20;;;26.10;49.80;;;;;;10344306;28;20050;-84
2022/06/14 12:07:37;;;;;;;1.38;0.30;;;25.90;48.10;;;;;;10349195;28;20037;-84
2022/06/14 12:13:08;;;;;;;2.10;0.30;;;25.90;49.00;;;;;;10344400;28;20050;-85
2022/06/14 12:18:13;;;;;;;2.05;0.20;;;26.30;49.60;;;;;;10338432;28;20057;-85
2022/06/14 12:23:28;;;;;;;1.08;0.50;;;26.50;49.30;;;;;;10347048;28;20046;-85
2022/06/14 12:28:38;;;;;;;1.58;0.20;;;26.80;50.90;;;;;;10365536;28;20042;-84
2022/06/14 12:33:45;;;;;;;0.77;0.10;;;26.40;47.90;;;;;;10347041;28;20046;-84
2022/06/14 12:38:52;;;;;;;1.58;0.35;;;26.90;50.10;;;;;;10330015;28;20042;-81
2022/06/14 12:44:04;;;;;;;1.48;0.20;;;26.40;46.70;;;;;;10347316;28;20153;-85
2022/06/14 12:49:13;;;;;;;1.65;0.20;;;26.70;49.10;;;;;;10346225;28;20034;-85
2022/06/14 12:54:43;;;;;;;0.40;0.10;;;26.90;50.90;;;;;;10345318;28;20123;-85
2022/06/14 12:59:54;;;;;;;2.05;0.20;;;26.90;49.40;;;;;;10321183;28;20133;-85
2022/06/14 13:05:02;;;;;;;0.75;0.10;;;26.60;47.90;;;;;;10342309;28;20099;-86
2022/06/14 13:10:26;;;;;;;2.80;0.10;;;26.70;47.70;;;;;;10341333;28;20065;-84
2022/06/14 13:15:57;;;;;;;2.17;0.20;;;27.10;47.90;;;;;;10337126;28;20057;-87
2022/06/14 13:21:39;;;;;;;0.52;0.20;;;26.20;48.50;;;;;;10330626;28;20050;-87
2022/06/14 13:27:11;;;;;;;3.78;0.40;;;26.30;46.40;;;;;;10320963;28;20054;-88
2022/06/14 13:32:48;;;;;;;1.33;0.10;;;27.00;48.30;;;;;;10292768;28;20054;-89
2022/06/14 13:38:18;;;;;;;2.90;0.20;;;27.40;46.70;;;;;;10339248;28;20054;-89
2022/06/14 13:44:00;;;;;;;2.45;0.22;;;27.60;44.20;;;;;;10343718;28;20053;-89
2022/06/14 13:49:16;;;;;;;1.40;0.10;;;27.90;44.70;;;;;;10324206;28;20103;-89
2022/06/14 13:54:55;;;;;;;2.38;0.20;;;28.00;45.20;;;;;;10340722;28;20050;-89
2022/06/14 14:00:04;;;;;;;0.88;0.22;;;28.70;42.70;;;;;;10349158;28;20046;-89
2022/06/14 14:05:18;;;;;;;0.20;0.10;;;29.00;43.60;;;;;;10342953;28;20496;-89
2022/06/14 14:10:44;;;;;;;1.23;0.20;;;28.70;41.80;;;;;;10334456;28;20057;-88
2022/06/14 14:16:15;;;;;;;;;;;28.90;42.50;;;;;;10332067;28;20053;-87
2022/06/14 14:21:48;;;;;;;0.10;0.10;;;29.50;43.20;;;;;;10331650;28;19926;-89
2022/06/14 14:27:31;;;;;;;0.55;0.10;;;29.30;43.70;;;;;;10333377;28;20125;-87
2022/06/14 14:33:05;;;;;;;0.30;0.17;;;28.70;41.30;;;;;;10346469;28;20053;-89
2022/06/14 14:38:14;;;;;;;2.53;0.10;;;29.60;42.50;;;;;;10305640;28;20042;-90
2022/06/14 14:43:29;;;;;;;2.13;0.10;;;29.80;41.60;;;;;;10215249;28;20397;-91
2022/06/14 14:48:38;;;;;;;1.90;0.10;;;30.40;40.90;;;;;;10354213;28;20045;-92
2022/06/14 14:53:43;;;;;;;1.20;0.25;;;30.60;40.30;;;;;;10343362;28;20046;-91
2022/06/14 14:58:50;;;;;;;;;;;29.50;39.50;;;;;;10354240;28;20411;-91
2022/06/14 15:09:42;;;;;;;3.13;0.40;;;30.50;40.40;;;;;;10358981;28;20058;-92
2022/06/14 15:15:00;;;;;;;1.00;0.10;;;29.90;39.90;;;;;;10353113;28;20053;-92
2022/06/14 15:20:03;;;;;;;0.85;0.10;;;30.40;42.90;;;;;;10365897;28;20092;-92
2022/06/14 15:25:13;;;;;;;0.60;0.10;;;30.70;40.50;;;;;;10373386;28;20102;-92
2022/06/14 15:30:35;;;;;;;1.95;0.10;;;30.70;41.30;;;;;;10372570;28;20049;-92
2022/06/14 15:35:56;;;;;;;0.80;0.10;;;30.70;41.00;;;;;;10360957;28;20157;-92
2022/06/14 15:41:16;;;;;;;0.40;0.10;;;31.00;40.80;;;;;;10326766;28;20054;-95
2022/06/14 15:46:23;;;;;;;0.75;0.10;;;30.90;41.30;;;;;;10301713;28;20133;-93
2022/06/14 15:51:25;;;;;;;0.73;0.10;;;30.70;37.70;;;;;;10320211;28;20115;-93
2022/06/14 15:56:39;;;;;;;2.57;0.00;;;30.50;37.40;;;;;;10350790;28;20050;-93
2022/06/14 16:01:43;;;;;;;0.77;0.10;;;30.60;38.70;;;;;;10316348;28;20089;-94
2022/06/14 16:07:09;;;;;;;1.35;0.10;;;30.70;38.30;;;;;;10331359;23;20046;-60
2022/06/14 16:12:34;;;;;;;0.20;0.10;;;30.70;38.10;;;;;;10348337;28;20049;-60
2022/06/14 16:17:41;;;;;;;0.10;0.08;;;30.90;38.40;;;;;;10347284;28;20053;-59
2022/06/14 16:22:43;;;;;;;1.00;0.10;;;30.90;36.70;;;;;;10347397;28;20172;-60
2022/06/14 16:27:54;;;;;;;3.05;0.10;;;30.90;38.20;;;;;;10347012;28;20116;-60
2022/06/14 16:33:09;;;;;;;0.65;0.20;;;30.60;36.90;;;;;;10347540;28;20111;-60
2022/06/14 16:38:34;;;;;;;;;;;30.40;39.10;;;;;;10351444;28;20100;-60
2022/06/14 16:43:51;;;;;;;1.93;0.10;;;30.40;39.50;;;;;;10347047;28;19925;-60
2022/06/14 16:49:15;;;;;;;0.30;0.10;;;30.50;39.80;;;;;;10348691;28;20125;-61
2022/06/14 16:54:38;;;;;;;0.77;0.20;;;30.40;39.30;;;;;;10349621;28;20053;-63
2022/06/14 17:00:06;;;;;;;1.42;0.10;;;30.30;39.20;;;;;;10349323;28;20092;-61
2022/06/14 17:05:25;;;;;;;0.70;0.10;;;30.40;39.70;;;;;;10333261;28;20057;-59
2022/06/14 17:10:48;;;;;;;1.75;0.10;;;30.30;40.10;;;;;;10344061;28;20037;-61
2022/06/14 17:16:03;;;;;;;0.45;0.10;;;30.10;40.00;;;;;;10344355;28;20046;-60
2022/06/14 17:21:25;;;;;;;;;;;29.80;39.60;;;;;;10343257;28;20049;-60
2022/06/14 17:32:07;;;;;;;0.25;0.10;;;29.70;40.50;;;;;;10345108;28;20073;-60
2022/06/14 17:37:21;;;;;;;0.52;0.10;;;29.60;39.40;;;;;;10345537;28;20069;-59
2022/06/14 17:42:26;;;;;;;2.92;0.20;;;29.80;41.00;;;;;;10346805;28;20927;-60
2022/06/14 17:47:34;;;;;;;6.55;0.47;;;29.60;39.70;;;;;;10343997;28;20046;-60
2022/06/14 17:52:47;;;;;;;1.25;0.10;;;29.60;41.50;;;;;;10344395;28;20061;-59
2022/06/14 17:58:16;;;;;;;2.75;0.10;;;29.40;41.40;;;;;;10345996;28;20088;-60
2022/06/14 18:03:18;;;;;;;0.30;0.10;;;29.20;41.70;;;;;;10347392;28;20041;-60
2022/06/14 18:08:47;;;;;;;1.58;0.10;;;29.30;42.60;;;;;;10346208;28;20568;-60
2022/06/14 18:14:00;;;;;;;1.75;0.17;;;29.30;42.70;;;;;;10341674;28;20045;-60
2022/06/14 18:20:50;;;;;;;0.52;0.10;;;29.10;43.90;;;;;;10345401;28;20618;-61
2022/06/14 18:24:54;;;;;;;2.55;0.13;;;28.50;44.60;;;;;;10350017;28;20049;-60
2022/06/14 18:29:59;;;;;;;0.63;0.10;;;27.90;45.60;;;;;;10351260;28;20515;-60
2022/06/14 18:35:04;;;;;;;0.60;0.10;;;27.20;46.20;;;;;;10353062;28;20049;-60
2022/06/14 18:40:23;;;;;;;5.32;0.10;;;26.80;46.90;;;;;;10354215;28;20042;-60
2022/06/14 18:45:25;;;;;;;0.68;0.10;;;26.40;48.20;;;;;;10349933;28;20042;-61
2022/06/14 19:22:25;;;;;;;1.30;0.13;;;23.90;51.80;;;;;;10295858;23;20149;-69
2022/06/14 19:28:13;;;;;;;0.25;0.10;;;23.50;52.00;;;;;;10261033;28;20051;-70
2022/06/14 19:34:21;;;;;;;1.60;0.30;;;23.20;53.50;;;;;;10194620;28;20623;-70
2022/06/14 19:39:50;;;;;;;1.67;0.20;;;22.80;55.00;;;;;;10260538;28;20066;-69
2022/06/14 19:45:18;;;;;;;0.73;0.20;;;22.50;56.90;;;;;;10259523;28;20137;-69
2022/06/14 19:50:49;;;;;;;1.23;0.30;;;22.20;59.50;;;;;;10300036;23;20149;-64
2022/06/14 19:56:10;;;;;;;1.67;0.30;;;21.90;60.10;;;;;;10290305;28;20105;-66
2022/06/14 20:01:47;;;;;;;1.10;0.30;;;21.60;59.70;;;;;;10286977;28;20046;-65
2022/06/14 20:07:11;;;;;;;3.90;0.30;;;21.20;61.10;;;;;;10281013;28;20103;-59
2022/06/14 20:12:34;;;;;;;2.38;0.30;;;20.90;59.60;;;;;;10290305;28;20094;-58
2022/06/14 20:18:12;;;;;;;1.42;0.22;;;20.70;60.10;;;;;;10287710;28;20684;-59
2022/06/14 20:23:34;;;;;;;3.40;0.60;;;20.50;60.70;;;;;;10284189;28;20133;-59
2022/06/14 20:29:02;;;;;;;3.92;0.50;;;20.20;60.40;;;;;;10394770;23;20150;-72
2022/06/14 20:34:24;;;;;;;0.90;0.35;;;20.10;62.40;;;;;;9559899;23;20970;-71
2022/06/14 20:40:15;;;;;;;1.17;0.30;;;19.90;63.50;;;;;;10308530;28;20093;-71
2022/06/14 20:45:41;;;;;;;0.38;0.30;;;19.70;63.50;;;;;;10311873;28;20149;-71
2022/06/14 20:51:05;;;;;;;0.70;0.43;;;19.50;63.00;;;;;;10314914;28;20050;-71
2022/06/14 20:56:27;;;;;;;1.70;0.40;;;19.30;62.70;;;;;;10311816;28;20050;-72
2022/06/14 21:01:51;;;;;;;2.78;0.30;;;19.10;62.80;;;;;;10290617;23;20728;-59
2022/06/14 21:07:16;;;;;;;0.73;0.20;;;19.00;62.50;;;;;;10269195;28;20047;-59
2022/06/14 21:12:43;;;;;;;1.27;0.22;;;18.80;63.20;;;;;;10267416;28;20116;-58
2022/06/14 21:18:05;;;;;;;2.57;0.47;;;18.70;62.70;;;;;;10265582;28;20511;-58
2022/06/14 21:23:47;;;;;;;1.63;0.40;;;18.60;64.30;;;;;;10263973;28;20085;-57
2022/06/14 21:29:11;;;;;;;1.98;0.30;;;18.50;66.40;;;;;;10267651;28;20050;-59
2022/06/14 21:34:33;;;;;;;1.05;0.25;;;18.30;67.60;;;;;;10270164;28;20050;-58
2022/06/14 21:39:55;;;;;;;0.70;0.30;;;18.20;66.10;;;;;;10270208;28;20520;-58
2022/06/14 21:45:26;;;;;;;0.77;0.20;;;18.10;65.90;;;;;;10269475;28;20679;-58
2022/06/14 21:50:51;;;;;;;0.73;0.25;;;18.10;67.50;;;;;;10206175;23;20048;-70
2022/06/14 21:56:18;;;;;;;2.47;0.60;;;18.10;69.40;;;;;;10188447;29;20057;-71
2022/06/14 22:01:23;;;;;;;1.35;0.40;;;18.00;72.00;;;;;;10179586;29;20465;-71
2022/06/14 22:06:31;;;;;;;1.17;0.47;;;17.90;73.20;;;;;;10181319;29;20059;-73
2022/06/14 22:11:36;;;;;;;2.78;0.40;;;17.80;73.10;;;;;;10179760;29;20186;-72
2022/06/14 22:16:37;;;;;;;1.48;0.40;;;17.70;73.10;;;;;;10183487;29;20075;-72
2022/06/14 22:21:40;;;;;;;1.55;0.40;;;17.60;73.50;;;;;;10185116;29;20055;-73
2022/06/14 22:26:42;;;;;;;5.28;0.50;;;17.60;73.40;;;;;;10183328;29;20076;-74
2022/06/14 22:31:44;;;;;;;5.93;0.40;;;17.60;75.30;;;;;;10164110;29;20051;-74
2022/06/14 22:36:46;;;;;;;4.10;0.65;;;17.50;74.20;;;;;;10169543;29;20058;-72
2022/06/14 22:41:53;;;;;;;2.05;0.30;;;17.40;76.10;;;;;;10181089;29;20047;-71
2022/06/14 22:46:56;;;;;;;1.85;0.35;;;17.30;77.40;;;;;;10186445;28;20056;-73
2022/06/14 22:52:01;;;;;;;2.95;0.30;;;17.30;78.70;;;;;;10210137;28;20051;-71
2022/06/14 22:57:10;;;;;;;1.50;0.50;;;17.10;79.40;;;;;;10205860;28;20141;-72
2022/06/14 23:02:12;;;;;;;5.10;0.52;;;17.00;79.70;;;;;;10231359;28;20146;-71
2022/06/14 23:07:17;;;;;;;2.80;0.55;;;16.90;81.70;;;;;;10234381;28;20055;-69
2022/06/14 23:12:20;;;;;;;3.80;0.60;;;16.80;82.20;;;;;;10232645;28;20050;-69
2022/06/14 23:17:22;;;;;;;0.22;0.15;;;16.80;82.90;;;;;;10238951;28;20130;-71
2022/06/14 23:22:23;;;;;;;0.40;0.25;;;16.70;82.20;;;;;;10235448;28;20064;-71
2022/06/14 23:27:25;;;;;;;0.93;0.55;;;16.60;84.10;;;;;;10235485;28;20412;-73
2022/06/14 23:32:27;;;;;;;2.42;0.40;;;16.50;86.50;;;;;;10221528;28;20054;-71
2022/06/14 23:37:30;;;;;;;4.32;0.40;;;16.50;88.40;;;;;;10237766;28;20156;-72
2022/06/14 23:42:32;;;;;;;2.78;0.30;;;16.30;90.10;;;;;;10232279;28;20063;-73
2022/06/14 23:47:33;;;;;;;0.65;0.28;;;16.20;90.60;;;;;;10236773;28;20121;-71
2022/06/14 23:52:35;;;;;;;2.42;0.30;;;16.20;88.80;;;;;;10235597;28;20558;-71
2022/06/14 23:57:37;;;;;;;1.42;0.20;;;16.20;88.80;;;;;;10230665;28;20055;-71
